createdAt,value
2022-11-05T00:01:16.100Z,3.72
2022-11-05T00:06:36.725Z,3.70
2022-11-05T00:11:57.091Z,3.80
2022-11-05T00:16:58.713Z,4.78
2022-11-05T00:22:19.367Z,4.72
2022-11-05T00:27:21.001Z,5.00
2022-11-05T00:32:24.717Z,5.88
2022-11-05T00:37:29.902Z,1.23
2022-11-05T00:42:51.971Z,1.95
2022-11-05T00:48:12.371Z,4.53
2022-11-05T00:53:14.353Z,2.28
2022-11-05T00:58:21.839Z,4.07
2022-11-05T01:03:33.469Z,2.13
2022-11-05T01:08:35.321Z,4.53
2022-11-05T01:13:38.242Z,3.38
2022-11-05T01:18:39.931Z,2.35
2022-11-05T01:23:41.974Z,1.83
2022-11-05T01:28:43.609Z,5.35
2022-11-05T01:33:46.340Z,1.73
2022-11-05T01:38:48.002Z,4.82
2022-11-05T01:43:54.940Z,6.18
2022-11-05T01:49:07.038Z,2.13
2022-11-05T01:54:13.650Z,4.10
2022-11-05T01:59:23.302Z,3.22
2022-11-05T02:04:31.948Z,5.45
2022-11-05T02:09:39.538Z,2.38
2022-11-05T02:14:41.239Z,3.88
2022-11-05T02:20:07.465Z,2.95
2022-11-05T02:25:15.074Z,3.83
2022-11-05T02:30:35.704Z,4.18
2022-11-05T02:35:49.639Z,3.97
2022-11-05T02:41:03.425Z,4.35
2022-11-05T02:46:14.796Z,4.25
2022-11-05T02:51:27.127Z,2.22
2022-11-05T02:56:40.080Z,1.58
2022-11-05T03:01:43.915Z,3.55
2022-11-05T03:06:51.215Z,3.15
2022-11-05T03:12:28.674Z,2.78
2022-11-05T03:17:38.012Z,3.67
2022-11-05T03:22:54.440Z,2.78
2022-11-05T03:28:03.626Z,4.65
2022-11-05T03:33:11.982Z,5.53
2022-11-05T03:38:21.577Z,2.97
2022-11-05T03:43:28.637Z,4.73
2022-11-05T03:48:33.325Z,5.55
2022-11-05T03:53:44.477Z,5.20
2022-11-05T03:58:47.365Z,2.40
2022-11-05T04:03:48.985Z,4.13
2022-11-05T04:09:09.569Z,6.40
2022-11-05T04:14:11.217Z,3.05
2022-11-05T04:19:12.872Z,3.55
2022-11-05T04:24:14.724Z,3.92
2022-11-05T04:29:35.042Z,4.40
2022-11-05T04:39:38.204Z,2.33
2022-11-05T04:44:40.058Z,2.33
2022-11-05T04:49:41.821Z,4.05
2022-11-05T04:54:44.191Z,3.83
2022-11-05T04:59:49.571Z,3.05
2022-11-05T05:04:51.287Z,4.95
2022-11-05T05:09:54.967Z,2.95
2022-11-05T05:14:57.279Z,2.55
2022-11-05T05:20:17.774Z,3.33
2022-11-05T05:25:19.437Z,2.08
2022-11-05T05:30:21.094Z,1.88
2022-11-05T05:35:22.920Z,2.35
2022-11-05T05:40:24.832Z,1.33
2022-11-05T05:45:26.556Z,3.13
2022-11-05T05:50:28.249Z,4.53
2022-11-05T05:55:29.929Z,3.10
2022-11-05T06:01:05.687Z,3.20
2022-11-05T06:06:13.058Z,3.72
2022-11-05T06:11:15.163Z,4.25
2022-11-05T06:16:19.613Z,2.30
2022-11-05T06:21:21.375Z,4.25
2022-11-05T06:26:23.150Z,3.58
2022-11-05T06:31:25.210Z,2.13
2022-11-05T06:36:26.905Z,3.53
2022-11-05T06:41:28.632Z,3.60
2022-11-05T06:46:30.474Z,3.22
2022-11-05T06:51:32.308Z,3.50
2022-11-05T06:56:35.448Z,2.08
2022-11-05T07:01:37.602Z,3.08
2022-11-05T07:06:39.505Z,4.03
2022-11-05T07:11:41.385Z,2.53
2022-11-05T07:16:43.221Z,5.40
2022-11-05T07:21:48.386Z,3.90
2022-11-05T07:26:50.262Z,5.57
2022-11-05T07:31:52.042Z,3.75
2022-11-05T07:36:53.717Z,2.00
2022-11-05T07:41:56.008Z,3.83
2022-11-05T07:46:57.894Z,3.53
2022-11-05T07:51:59.618Z,3.92
2022-11-05T07:57:01.544Z,4.55
2022-11-05T08:02:03.375Z,4.50
2022-11-05T08:07:05.724Z,4.68
2022-11-05T08:12:08.599Z,4.80
2022-11-05T08:17:11.612Z,3.55
2022-11-05T08:22:15.456Z,4.10
2022-11-05T08:27:17.181Z,7.97
2022-11-05T08:32:19.068Z,3.45
2022-11-05T08:37:20.785Z,7.38
2022-11-05T08:42:22.554Z,5.50
2022-11-05T08:47:25.230Z,5.05
2022-11-05T08:52:26.946Z,4.63
2022-11-05T08:57:28.731Z,5.03
2022-11-05T09:02:30.579Z,7.38
2022-11-05T09:07:32.446Z,7.45
2022-11-05T09:12:34.325Z,4.53
2022-11-05T09:17:36.404Z,2.92
2022-11-05T09:22:43.081Z,3.92
2022-11-05T09:27:45.223Z,4.63
2022-11-05T09:32:46.932Z,6.57
2022-11-05T09:37:48.524Z,4.35
2022-11-05T09:42:52.588Z,8.77
2022-11-05T09:48:09.973Z,4.57
2022-11-05T09:53:22.237Z,6.03
2022-11-05T09:58:43.684Z,3.42
2022-11-05T10:03:49.841Z,5.00
2022-11-05T10:09:03.558Z,4.10
2022-11-05T10:14:20.160Z,4.53
2022-11-05T10:19:30.448Z,6.05
2022-11-05T10:24:32.108Z,6.15
2022-11-05T10:29:35.030Z,6.03
2022-11-05T10:34:39.275Z,5.75
2022-11-05T10:39:41.105Z,5.68
2022-11-05T10:45:08.110Z,7.00
2022-11-05T10:50:18.800Z,4.85
2022-11-05T10:55:45.486Z,8.90
2022-11-05T11:00:50.279Z,6.88
2022-11-05T11:05:59.909Z,5.80
2022-11-05T11:11:11.457Z,9.10
2022-11-05T11:16:15.966Z,7.03
2022-11-05T11:21:26.388Z,6.63
2022-11-05T11:26:39.928Z,6.53
2022-11-05T11:31:42.096Z,4.53
2022-11-05T11:36:46.685Z,7.85
2022-11-05T11:41:54.917Z,10.98
2022-11-05T11:47:02.100Z,7.80
2022-11-05T11:52:11.321Z,9.02
2022-11-05T11:57:29.433Z,6.25
2022-11-05T12:02:44.837Z,5.80
2022-11-05T12:07:53.024Z,5.55
2022-11-05T12:13:00.564Z,5.07
2022-11-05T12:18:06.096Z,7.55
2022-11-05T12:23:28.829Z,11.02
2022-11-05T12:29:17.986Z,5.25
2022-11-05T12:34:47.929Z,6.60
2022-11-05T12:40:31.281Z,5.82
2022-11-05T12:46:06.538Z,6.25
2022-11-05T12:51:23.760Z,4.30
2022-11-05T12:56:37.882Z,4.45
2022-11-05T13:01:57.889Z,6.28
2022-11-05T13:07:05.405Z,7.80
2022-11-05T13:12:17.576Z,3.58
2022-11-05T13:17:29.801Z,3.40
2022-11-05T13:22:42.868Z,5.10
2022-11-05T13:27:52.278Z,7.55
2022-11-05T13:33:10.809Z,5.20
2022-11-05T13:38:44.292Z,4.28
2022-11-05T13:44:20.264Z,3.38
2022-11-05T13:49:39.276Z,5.38
2022-11-05T13:55:12.553Z,7.97
2022-11-05T14:00:21.202Z,9.80
2022-11-05T14:05:27.112Z,9.35
2022-11-05T14:10:56.925Z,5.68
2022-11-05T14:16:16.928Z,7.00
2022-11-05T14:21:27.400Z,6.28
2022-11-05T14:26:33.164Z,6.38
2022-11-05T14:32:07.674Z,6.55
2022-11-05T14:37:11.857Z,6.22
2022-11-05T14:42:18.793Z,6.32
2022-11-05T14:47:23.085Z,10.57
2022-11-05T14:52:24.727Z,7.00
2022-11-05T14:57:44.522Z,6.20
2022-11-05T15:02:56.909Z,5.10
2022-11-05T15:07:59.376Z,4.95
2022-11-05T15:13:06.332Z,5.53
2022-11-05T15:18:38.906Z,7.43
2022-11-05T15:23:45.259Z,6.47
2022-11-05T15:28:54.164Z,6.53
2022-11-05T15:34:22.680Z,10.20
2022-11-05T15:39:40.385Z,3.72
2022-11-05T15:44:47.574Z,5.65
2022-11-05T15:49:56.095Z,9.80
2022-11-05T15:55:14.844Z,6.97
2022-11-05T16:00:23.638Z,6.68
2022-11-05T16:05:27.872Z,5.95
2022-11-05T16:10:33.351Z,6.68
2022-11-05T16:15:35.268Z,11.43
2022-11-05T16:20:38.681Z,7.75
2022-11-05T16:25:43.723Z,7.43
2022-11-05T16:31:12.057Z,11.27
2022-11-05T16:36:13.870Z,6.97
2022-11-05T16:41:18.540Z,9.23
2022-11-05T16:46:23.287Z,7.05
2022-11-05T16:51:28.220Z,12.13
2022-11-05T16:56:30.914Z,8.63
2022-11-05T17:01:34.380Z,8.00
2022-11-05T17:06:36.137Z,10.73
2022-11-05T17:11:37.758Z,8.02
2022-11-05T17:16:40.497Z,10.75
2022-11-05T17:21:42.174Z,10.38
2022-11-05T17:26:43.929Z,12.98
2022-11-05T17:31:45.623Z,11.57
2022-11-05T17:36:47.285Z,16.13
2022-11-05T17:41:49.069Z,11.85
2022-11-05T17:46:51.301Z,11.48
2022-11-05T17:51:52.978Z,9.68
2022-11-05T17:56:54.722Z,12.13
2022-11-05T18:01:56.676Z,9.27
2022-11-05T18:06:58.510Z,10.43
2022-11-05T18:12:00.316Z,14.68
2022-11-05T18:17:02.121Z,9.32
2022-11-05T18:22:03.846Z,8.00
2022-11-05T18:27:05.503Z,10.90
2022-11-05T18:32:07.197Z,11.90
2022-11-05T18:37:08.809Z,13.00
2022-11-05T18:42:10.827Z,12.43
2022-11-05T18:47:15.927Z,9.13
2022-11-05T18:52:17.650Z,8.23
2022-11-05T18:57:20.755Z,10.48
2022-11-05T19:02:30.066Z,7.20
2022-11-05T19:07:31.852Z,7.57
2022-11-05T19:12:33.500Z,9.02
2022-11-05T19:17:36.304Z,10.38
2022-11-05T19:22:40.807Z,8.80
2022-11-05T19:27:43.722Z,12.75
2022-11-05T19:32:45.509Z,10.73
2022-11-05T19:37:47.157Z,10.77
2022-11-05T19:42:48.829Z,10.70
2022-11-05T19:47:50.648Z,10.15
2022-11-05T19:52:54.206Z,7.15
2022-11-05T19:57:56.577Z,7.32
2022-11-05T20:02:58.442Z,9.05
2022-11-05T20:08:00.469Z,9.13
2022-11-05T20:13:02.259Z,6.53
2022-11-05T20:18:04.033Z,9.27
2022-11-05T20:23:05.700Z,5.28
2022-11-05T20:28:07.438Z,7.45
2022-11-05T20:33:11.776Z,9.60
2022-11-05T20:38:13.918Z,6.45
2022-11-05T20:43:16.051Z,7.13
2022-11-05T20:48:17.808Z,5.78
2022-11-05T20:53:19.719Z,8.93
2022-11-05T20:58:21.457Z,6.80
2022-11-05T21:03:24.361Z,9.88
2022-11-05T21:08:27.599Z,9.65
2022-11-05T21:13:30.363Z,9.18
2022-11-05T21:18:34.354Z,8.77
2022-11-05T21:23:36.302Z,8.07
2022-11-05T21:28:40.759Z,7.07
2022-11-05T21:33:42.618Z,11.05
2022-11-05T21:38:44.281Z,9.25
2022-11-05T21:43:45.978Z,6.25
2022-11-05T21:49:10.929Z,7.57
2022-11-05T21:54:31.369Z,7.15
2022-11-05T21:59:48.530Z,5.60
2022-11-05T22:04:52.940Z,4.95
2022-11-05T22:09:55.209Z,5.50
2022-11-05T22:14:57.240Z,11.38
2022-11-05T22:19:58.864Z,5.05
2022-11-05T22:25:00.535Z,5.78
2022-11-05T22:30:02.221Z,10.55
2022-11-05T22:35:04.081Z,6.40
2022-11-05T22:40:06.431Z,7.90
2022-11-05T22:45:08.582Z,7.30
2022-11-05T22:50:10.803Z,6.50
2022-11-05T22:55:12.510Z,8.05
2022-11-05T23:00:20.141Z,8.15
2022-11-05T23:05:21.822Z,7.85
2022-11-05T23:10:42.452Z,9.10
2022-11-05T23:16:02.660Z,5.18
2022-11-05T23:26:43.610Z,5.55
2022-11-05T23:37:24.642Z,9.83
2022-11-05T23:42:44.888Z,9.07
2022-11-05T23:53:08.665Z,6.17
2022-11-05T23:58:10.922Z,12.40
